Time;durP1;ratioP1;P1;durP2;ratioP2;P2;SDS_P1;SDS_P2;PMS_P1;PMS_P2;Temp;Humidity;BMP_temperature;BMP_pressure;BME280_temperature;BME280_humidity;BME280_pressure;Samples;Min_cycle;Max_cycle;Signal;HPM_P1;HPM_P2
2022/11/11 00:01:35;;;;;;;5.78;1.60;;;15.40;99.90;;;;;;5030767;28;20221;-57
2022/11/11 00:04:01;;;;;;;8.90;1.58;;;15.40;99.90;;;;;;5030535;28;20186;-57
2022/11/11 00:06:27;;;;;;;10.93;2.40;;;15.50;99.90;;;;;;5030335;28;20189;-57
2022/11/11 00:08:52;;;;;;;7.63;1.42;;;15.50;99.90;;;;;;5030460;28;20228;-57
2022/11/11 00:11:18;;;;;;;3.50;0.85;;;15.50;99.90;;;;;;5030536;28;20265;-57
2022/11/11 00:13:44;;;;;;;3.00;1.17;;;15.50;99.90;;;;;;5030821;28;20182;-57
2022/11/11 00:16:12;;;;;;;7.50;1.48;;;15.50;99.90;;;;;;5030694;28;20186;-57
2022/11/11 00:26:46;;;;;;;9.00;1.88;;;15.60;99.90;;;;;;5030748;28;20252;-57
2022/11/11 00:29:12;;;;;;;14.05;1.63;;;15.60;99.90;;;;;;5030204;28;20217;-57
2022/11/11 00:32:21;;;;;;;8.77;1.77;;;15.50;99.90;;;;;;5030482;28;20166;-57
2022/11/11 00:34:23;;;;;;;15.38;2.22;;;15.60;99.90;;;;;;5030114;28;20186;-57
2022/11/11 00:36:49;;;;;;;18.50;2.00;;;15.60;99.90;;;;;;5029977;28;20587;-57
2022/11/11 00:39:14;;;;;;;4.47;1.23;;;15.60;99.90;;;;;;5028450;28;20377;-57
2022/11/11 00:41:40;;;;;;;10.63;1.58;;;15.60;99.90;;;;;;5021002;28;20232;-58
2022/11/11 00:44:06;;;;;;;9.57;1.40;;;15.60;99.90;;;;;;5013158;28;20183;-56
2022/11/11 00:52:00;;;;;;;11.13;2.38;;;15.60;99.90;;;;;;5014221;28;20220;-56
2022/11/11 00:54:26;;;;;;;10.00;1.92;;;15.60;99.90;;;;;;5030702;28;20177;-56
2022/11/11 00:56:52;;;;;;;11.35;2.08;;;15.60;99.90;;;;;;5030040;28;20209;-56
2022/11/11 00:59:17;;;;;;;14.15;1.65;;;15.50;99.90;;;;;;5029713;28;20371;-56
2022/11/11 01:01:43;;;;;;;10.52;3.17;;;15.60;99.90;;;;;;5029930;28;20747;-56
2022/11/11 01:04:09;;;;;;;9.00;1.77;;;15.60;99.90;;;;;;5029618;28;20264;-56
2022/11/11 01:06:35;;;;;;;24.33;6.95;;;15.60;99.90;;;;;;5031087;28;20641;-56
2022/11/11 01:09:05;;;;;;;41.15;14.35;;;15.30;99.90;;;;;;5033686;28;20695;-56
2022/11/11 01:11:31;;;;;;;15.95;2.97;;;16.60;99.90;;;;;;5033636;28;20197;-56
2022/11/11 01:13:57;;;;;;;19.37;6.60;;;15.50;99.90;;;;;;5033573;28;20178;-56
2022/11/11 01:16:25;;;;;;;25.73;9.20;;;15.50;99.90;;;;;;5034238;28;20647;-56
2022/11/11 01:18:52;;;;;;;28.55;8.93;;;15.60;99.90;;;;;;5033762;28;20185;-56
2022/11/11 01:21:21;;;;;;;11.98;2.30;;;15.50;99.90;;;;;;5033406;28;20253;-57
2022/11/11 01:23:48;;;;;;;9.90;1.90;;;15.60;99.90;;;;;;5033659;28;20197;-56
2022/11/11 01:26:16;;;;;;;8.68;2.22;;;15.60;99.90;;;;;;5033326;28;20223;-56
2022/11/11 01:28:42;;;;;;;4.65;1.80;;;15.50;99.90;;;;;;5033412;28;20604;-56
2022/11/11 01:31:11;;;;;;;5.93;1.55;;;15.50;99.90;;;;;;5033377;28;20177;-56
2022/11/11 01:33:36;;;;;;;10.63;1.50;;;15.50;99.90;;;;;;5033241;28;20182;-56
2022/11/11 01:36:04;;;;;;;9.73;1.50;;;15.60;99.90;;;;;;5031695;28;20699;-56
2022/11/11 01:38:30;;;;;;;5.13;1.30;;;15.60;99.90;;;;;;5028161;28;20212;-57
2022/11/11 01:40:56;;;;;;;5.25;1.17;;;15.60;99.90;;;;;;5033061;28;20249;-56
2022/11/11 01:43:23;;;;;;;4.85;1.23;;;15.60;99.90;;;;;;5031312;28;20518;-56
2022/11/11 01:45:57;;;;;;;6.28;1.90;;;15.60;99.90;;;;;;5031862;28;20189;-57
2022/11/11 01:51:26;;;;;;;10.48;1.50;;;15.60;99.90;;;;;;5033101;28;20193;-59
2022/11/11 01:53:58;;;;;;;15.95;1.73;;;15.70;99.90;;;;;;5033204;28;20228;-57
2022/11/11 01:56:25;;;;;;;10.77;1.35;;;15.60;99.90;;;;;;5032484;28;20325;-56
2022/11/11 01:58:54;;;;;;;5.68;1.50;;;15.60;99.90;;;;;;5032902;28;20248;-57
2022/11/11 02:01:20;;;;;;;6.45;1.55;;;16.00;99.90;;;;;;5032322;28;20184;-57
2022/11/11 02:06:33;;;;;;;8.73;1.27;;;16.60;99.90;;;;;;5032812;28;20232;-57
2022/11/11 02:08:59;;;;;;;4.85;1.23;;;15.60;99.90;;;;;;5031556;28;20781;-57
2022/11/11 02:16:55;;;;;;;8.68;1.70;;;15.40;99.90;;;;;;5032831;28;20176;-57
2022/11/11 02:19:31;;;;;;;9.97;1.50;;;15.40;99.90;;;;;;5032136;28;20178;-59
2022/11/11 02:22:00;;;;;;;3.08;0.65;;;15.40;99.90;;;;;;5032435;28;20205;-58
2022/11/11 02:24:27;;;;;;;7.28;1.27;;;15.40;99.90;;;;;;5032835;28;20194;-58
2022/11/11 02:26:55;;;;;;;9.82;1.77;;;15.40;99.90;;;;;;5032310;28;20166;-55
2022/11/11 02:29:22;;;;;;;9.65;1.13;;;15.40;99.90;;;;;;5032400;28;20228;-56
2022/11/11 02:31:47;;;;;;;7.57;1.13;;;15.40;99.90;;;;;;5029542;28;20801;-56
2022/11/11 02:34:13;;;;;;;9.32;1.40;;;15.40;99.90;;;;;;5029409;28;20178;-56
2022/11/11 02:36:41;;;;;;;7.95;1.63;;;15.50;99.90;;;;;;5029990;28;20661;-55
2022/11/11 02:39:07;;;;;;;8.27;1.50;;;15.50;99.90;;;;;;5028217;28;20269;-55
2022/11/11 02:44:17;;;;;;;9.07;1.30;;;15.60;99.90;;;;;;5032435;28;20180;-56
2022/11/11 02:46:43;;;;;;;11.38;1.58;;;15.50;99.90;;;;;;5031844;28;20181;-56
2022/11/11 02:49:08;;;;;;;11.57;1.60;;;15.60;99.90;;;;;;5031697;28;20677;-57
2022/11/11 02:51:34;;;;;;;9.93;1.70;;;15.60;99.90;;;;;;5032314;28;20778;-57
2022/11/11 02:54:01;;;;;;;8.57;1.35;;;15.60;99.90;;;;;;5032218;28;20240;-56
2022/11/11 02:59:12;;;;;;;9.60;2.10;;;15.60;99.90;;;;;;5031741;28;20264;-56
2022/11/11 03:01:38;;;;;;;10.30;1.65;;;15.60;99.90;;;;;;5031228;28;20582;-56
2022/11/11 03:04:04;;;;;;;10.60;1.75;;;15.60;99.90;;;;;;5031166;28;20208;-57
2022/11/11 03:06:30;;;;;;;10.57;2.13;;;15.60;99.90;;;;;;5031530;28;20178;-57
2022/11/11 03:08:56;;;;;;;15.88;2.38;;;15.60;99.90;;;;;;5031534;28;20229;-55
2022/11/11 03:11:27;;;;;;;13.85;2.15;;;15.50;99.90;;;;;;5031320;28;20276;-56
2022/11/11 03:13:57;;;;;;;14.98;2.45;;;15.50;99.90;;;;;;5030858;28;20664;-56
2022/11/11 03:19:07;;;;;;;14.07;2.25;;;15.50;99.90;;;;;;5031583;28;20247;-56
2022/11/11 03:21:33;;;;;;;9.80;2.45;;;15.60;99.90;;;;;;5031287;28;20185;-56
2022/11/11 03:23:59;;;;;;;9.05;2.00;;;15.50;99.90;;;;;;5031593;28;20177;-56
2022/11/11 03:26:24;;;;;;;3.97;1.15;;;15.60;99.90;;;;;;5030879;28;20177;-56
2022/11/11 03:28:50;;;;;;;7.85;1.45;;;15.50;99.90;;;;;;5030736;28;20217;-56
2022/11/11 03:31:16;;;;;;;8.38;1.17;;;15.60;99.90;;;;;;5031258;28;20182;-55
2022/11/11 03:33:42;;;;;;;12.07;1.75;;;15.60;99.90;;;;;;5030815;28;20178;-57
2022/11/11 03:36:08;;;;;;;8.30;1.48;;;15.60;99.90;;;;;;5028585;28;20182;-57
2022/11/11 03:38:34;;;;;;;7.10;1.30;;;15.70;99.90;;;;;;5020290;28;20178;-57
2022/11/11 03:40:59;;;;;;;5.78;1.00;;;15.70;99.90;;;;;;5030018;28;20190;-57
2022/11/11 03:43:28;;;;;;;5.07;1.10;;;15.70;99.90;;;;;;5028258;28;20178;-57
2022/11/11 03:45:56;;;;;;;4.10;0.85;;;15.70;99.90;;;;;;5020510;28;20197;-55
2022/11/11 03:48:22;;;;;;;4.30;1.02;;;15.70;99.90;;;;;;5017909;28;20217;-55
2022/11/11 03:50:48;;;;;;;6.22;1.23;;;15.70;99.90;;;;;;5030296;28;20181;-56
2022/11/11 03:53:15;;;;;;;8.57;1.20;;;15.80;99.90;;;;;;5031033;28;20228;-56
2022/11/11 03:55:41;;;;;;;7.28;1.00;;;15.80;99.90;;;;;;5030878;28;20201;-56
2022/11/11 03:58:07;;;;;;;3.28;1.23;;;15.90;99.90;;;;;;5030402;28;20687;-57
2022/11/11 04:00:33;;;;;;;2.95;0.98;;;15.90;99.90;;;;;;5030950;28;20170;-57
2022/11/11 04:11:43;;;;;;;4.50;1.33;;;15.90;99.90;;;;;;5030823;28;20683;-55
2022/11/11 04:16:56;;;;;;;10.93;1.45;;;15.80;99.90;;;;;;5030401;28;20193;-55
2022/11/11 04:22:06;;;;;;;8.60;1.45;;;15.70;99.90;;;;;;5030980;28;20698;-56
2022/11/11 04:27:18;;;;;;;10.15;1.58;;;15.70;99.90;;;;;;5030187;28;20239;-55
2022/11/11 04:29:46;;;;;;;11.30;1.40;;;15.70;99.90;;;;;;5030473;28;20213;-56
2022/11/11 04:35:06;;;;;;;12.88;1.90;;;15.60;99.90;;;;;;5015698;28;20190;-55
2022/11/11 04:37:34;;;;;;;7.03;1.63;;;15.90;99.90;;;;;;5023847;28;20272;-56
2022/11/11 04:42:44;;;;;;;11.13;1.95;;;15.50;99.90;;;;;;5025109;28;20660;-57
2022/11/11 04:45:27;;;;;;;13.35;2.00;;;15.50;99.90;;;;;;5026663;28;20270;-56
2022/11/11 04:47:55;;;;;;;15.27;2.08;;;15.60;99.90;;;;;;5033781;28;20173;-56
2022/11/11 04:50:26;;;;;;;13.93;1.98;;;15.50;99.90;;;;;;5034292;28;20190;-57
2022/11/11 04:52:52;;;;;;;16.45;2.50;;;15.60;99.90;;;;;;5034118;28;20192;-56
2022/11/11 04:58:03;;;;;;;11.25;1.77;;;15.50;99.90;;;;;;5030795;28;20200;-56
2022/11/11 05:00:29;;;;;;;11.00;1.88;;;15.50;99.90;;;;;;5033796;28;20178;-56
2022/11/11 05:11:13;;;;;;;9.07;1.35;;;15.60;99.90;;;;;;5034034;28;20601;-56
2022/11/11 05:22:00;;;;;;;7.88;1.40;;;15.60;99.90;;;;;;5033880;28;20215;-56
2022/11/11 05:27:09;;;;;;;7.10;1.45;;;15.60;99.90;;;;;;5033390;28;20185;-56
2022/11/11 05:29:35;;;;;;;12.73;1.60;;;15.50;99.90;;;;;;5030526;28;20213;-57
2022/11/11 05:32:01;;;;;;;8.50;1.17;;;15.50;99.90;;;;;;5032337;28;20177;-56
2022/11/11 05:34:26;;;;;;;6.22;1.40;;;15.50;99.90;;;;;;5030937;28;20292;-56
2022/11/11 05:36:52;;;;;;;13.97;1.53;;;15.50;99.90;;;;;;5022710;28;20186;-56
2022/11/11 05:39:18;;;;;;;11.68;1.80;;;15.50;99.90;;;;;;5018883;28;20645;-56
2022/11/11 05:41:43;;;;;;;6.68;1.33;;;15.50;99.90;;;;;;5022915;28;20248;-56
2022/11/11 05:44:09;;;;;;;8.20;1.50;;;15.50;99.90;;;;;;5033379;28;20526;-56
2022/11/11 05:46:35;;;;;;;9.60;1.60;;;15.50;99.90;;;;;;5032882;28;20570;-56
2022/11/11 05:49:15;;;;;;;6.63;1.10;;;15.40;99.90;;;;;;5014923;28;20577;-56
2022/11/11 05:51:45;;;;;;;8.23;1.40;;;15.40;99.90;;;;;;5033187;28;20177;-56
2022/11/11 05:54:11;;;;;;;13.75;2.03;;;15.30;99.90;;;;;;5032230;28;20248;-56
2022/11/11 05:56:38;;;;;;;11.02;1.75;;;15.40;99.90;;;;;;5032752;28;20231;-56
2022/11/11 05:59:05;;;;;;;8.25;0.63;;;15.40;99.90;;;;;;5032626;28;20751;-56
2022/11/11 06:01:34;;;;;;;7.20;1.63;;;15.30;99.90;;;;;;5032910;28;20190;-59
2022/11/11 06:04:00;;;;;;;8.90;0.95;;;15.50;99.90;;;;;;5033287;28;20830;-56
2022/11/11 06:06:26;;;;;;;6.95;1.83;;;15.40;99.90;;;;;;5032468;28;20170;-56
2022/11/11 06:08:51;;;;;;;7.70;0.90;;;15.30;99.90;;;;;;5033098;28;20209;-56
2022/11/11 06:11:17;;;;;;;7.18;1.10;;;15.30;99.90;;;;;;5032343;28;20648;-56
2022/11/11 06:13:43;;;;;;;7.93;1.10;;;15.30;99.90;;;;;;5032766;28;20181;-56
2022/11/11 06:16:09;;;;;;;6.75;1.50;;;15.30;99.90;;;;;;5032646;28;20174;-58
2022/11/11 06:18:34;;;;;;;5.50;1.02;;;15.30;99.90;;;;;;5032812;28;20200;-56
2022/11/11 06:21:00;;;;;;;10.88;1.13;;;15.20;99.90;;;;;;5032413;28;20641;-56
2022/11/11 06:23:27;;;;;;;11.83;1.40;;;15.20;99.90;;;;;;5032982;28;20177;-58
2022/11/11 06:26:11;;;;;;;4.43;0.80;;;15.20;99.90;;;;;;5032524;28;20170;-57
2022/11/11 06:28:38;;;;;;;5.47;1.00;;;15.20;99.90;;;;;;5032608;28;20240;-57
2022/11/11 06:31:06;;;;;;;4.15;0.82;;;15.20;99.90;;;;;;5031711;28;20182;-56
2022/11/11 06:33:33;;;;;;;5.47;0.75;;;15.20;99.90;;;;;;5032085;28;20240;-57
2022/11/11 06:35:58;;;;;;;7.47;0.93;;;15.20;99.90;;;;;;5029420;28;20173;-57
2022/11/11 06:38:24;;;;;;;7.25;1.70;;;15.00;99.90;;;;;;5028430;28;20239;-57
2022/11/11 06:40:50;;;;;;;4.30;0.93;;;15.10;99.90;;;;;;5018988;28;20212;-56
2022/11/11 06:43:15;;;;;;;7.13;1.45;;;15.10;99.90;;;;;;5028582;28;20174;-56
2022/11/11 06:45:41;;;;;;;3.75;1.30;;;15.10;99.90;;;;;;5023269;28;20170;-57
2022/11/11 06:48:07;;;;;;;4.53;1.10;;;15.10;99.90;;;;;;5022988;28;20748;-57
2022/11/11 06:50:33;;;;;;;5.45;1.30;;;15.10;99.90;;;;;;5031959;28;20186;-56
2022/11/11 06:53:06;;;;;;;8.60;1.23;;;14.90;99.90;;;;;;5031972;28;20252;-56
2022/11/11 06:55:33;;;;;;;7.80;1.17;;;15.10;99.90;;;;;;5031312;28;20644;-57
2022/11/11 06:58:16;;;;;;;6.63;1.10;;;15.10;99.90;;;;;;5030665;28;20287;-56
2022/11/11 07:00:42;;;;;;;4.55;1.23;;;15.10;99.90;;;;;;5031198;28;20236;-56
2022/11/11 07:03:11;;;;;;;3.65;0.90;;;15.10;99.90;;;;;;5030754;28;20178;-56
2022/11/11 07:05:36;;;;;;;5.45;1.05;;;15.20;99.90;;;;;;5030172;28;20216;-56
2022/11/11 07:08:04;;;;;;;6.05;1.13;;;15.00;99.90;;;;;;5030991;28;20597;-56
2022/11/11 07:10:31;;;;;;;8.85;2.38;;;15.10;99.90;;;;;;5031251;28;20186;-56
2022/11/11 07:12:57;;;;;;;13.30;1.40;;;15.10;99.90;;;;;;5031024;28;20271;-56
2022/11/11 07:15:23;;;;;;;6.68;1.33;;;15.10;99.90;;;;;;5027333;28;20649;-56
2022/11/11 07:17:49;;;;;;;6.85;1.30;;;15.10;99.90;;;;;;5020137;28;20177;-57
2022/11/11 07:20:15;;;;;;;5.25;1.20;;;15.20;99.90;;;;;;5024366;28;20182;-56
2022/11/11 07:22:40;;;;;;;6.88;1.27;;;15.00;99.90;;;;;;5020442;28;20276;-57
2022/11/11 07:25:06;;;;;;;5.63;1.65;;;15.10;99.90;;;;;;5028285;28;20244;-56
2022/11/11 07:27:36;;;;;;;2.80;1.17;;;14.70;99.90;;;;;;5028140;28;20243;-56
2022/11/11 07:30:01;;;;;;;2.90;0.90;;;15.00;99.90;;;;;;5023474;28;20225;-56
2022/11/11 07:32:27;;;;;;;14.13;1.70;;;15.10;99.90;;;;;;5028785;28;20697;-57
2022/11/11 07:34:53;;;;;;;5.93;1.20;;;15.10;99.90;;;;;;5015452;28;20681;-56
2022/11/11 07:37:19;;;;;;;5.13;1.42;;;15.20;99.90;;;;;;5029724;28;20504;-57
2022/11/11 07:39:44;;;;;;;4.90;1.35;;;15.20;99.90;;;;;;5028527;28;20626;-57
2022/11/11 07:42:10;;;;;;;7.05;1.65;;;15.10;99.90;;;;;;5020503;28;20283;-60
2022/11/11 07:44:35;;;;;;;7.47;1.25;;;15.20;99.90;;;;;;5030989;28;20181;-58
2022/11/11 07:47:01;;;;;;;5.75;1.45;;;15.20;99.90;;;;;;5030818;28;20174;-60
2022/11/11 07:49:27;;;;;;;3.28;1.20;;;15.20;99.90;;;;;;5030138;28;20331;-60
2022/11/11 07:51:52;;;;;;;4.63;1.40;;;15.20;99.90;;;;;;5015690;28;20272;-60
2022/11/11 07:54:18;;;;;;;7.10;1.08;;;15.10;99.90;;;;;;5017874;28;20259;-60
2022/11/11 07:56:44;;;;;;;9.50;1.35;;;15.20;99.90;;;;;;5030943;28;20169;-60
2022/11/11 07:59:09;;;;;;;7.43;1.35;;;15.20;99.90;;;;;;5031091;28;20222;-60
2022/11/11 08:01:35;;;;;;;7.32;1.20;;;15.20;99.90;;;;;;5030647;28;20165;-59
2022/11/11 08:04:01;;;;;;;7.15;1.02;;;15.20;99.90;;;;;;5029250;28;20199;-59
2022/11/11 08:06:26;;;;;;;7.55;1.50;;;15.20;99.90;;;;;;5013128;28;20266;-59
2022/11/11 08:08:52;;;;;;;7.28;1.08;;;15.10;99.90;;;;;;5011262;28;20250;-59
2022/11/11 08:13:39;;;;;;;3.70;1.10;;;15.40;99.90;;;;;;5019914;28;20648;-59
2022/11/11 08:14:03;;;;;;;12.85;1.58;;;15.40;99.90;;;;;;5021521;28;20173;-59
2022/11/11 08:16:29;;;;;;;11.73;1.45;;;15.20;99.90;;;;;;5026188;28;20178;-59
2022/11/11 08:18:57;;;;;;;6.72;1.42;;;15.20;99.90;;;;;;5026497;28;20197;-59
2022/11/11 08:21:23;;;;;;;10.52;2.70;;;15.10;99.90;;;;;;5020903;28;20252;-59
2022/11/11 08:23:48;;;;;;;4.73;1.40;;;15.20;99.90;;;;;;5022626;28;20264;-60
2022/11/11 08:26:14;;;;;;;5.85;1.35;;;15.20;99.90;;;;;;5017454;28;20189;-60
2022/11/11 08:28:40;;;;;;;5.78;1.52;;;15.20;99.90;;;;;;5021517;28;20576;-60
2022/11/11 08:31:05;;;;;;;6.80;1.50;;;15.20;99.90;;;;;;5022081;28;20178;-60
2022/11/11 08:33:31;;;;;;;9.80;1.40;;;15.30;99.90;;;;;;5029070;28;20257;-60
2022/11/11 08:35:58;;;;;;;8.50;1.60;;;15.20;99.90;;;;;;5030936;28;20174;-59
2022/11/11 08:38:24;;;;;;;6.75;1.35;;;15.10;99.90;;;;;;5030257;28;20264;-59
2022/11/11 08:40:51;;;;;;;10.68;1.70;;;15.30;99.90;;;;;;5030656;28;20316;-58
2022/11/11 08:43:17;;;;;;;7.55;1.70;;;15.20;99.90;;;;;;5029525;28;20245;-58
2022/11/11 08:45:43;;;;;;;12.38;1.58;;;15.10;99.90;;;;;;5030169;28;20537;-57
2022/11/11 08:48:09;;;;;;;10.48;1.63;;;15.20;99.90;;;;;;5030149;28;20245;-58
2022/11/11 08:50:39;;;;;;;14.50;1.67;;;15.20;99.90;;;;;;5030449;28;20588;-56
2022/11/11 08:53:07;;;;;;;9.38;1.70;;;15.20;99.90;;;;;;5029951;28;20316;-56
2022/11/11 08:55:36;;;;;;;7.95;1.75;;;15.20;99.90;;;;;;5030423;28;20562;-57
2022/11/11 08:58:04;;;;;;;17.42;1.88;;;15.30;99.90;;;;;;5028674;28;20475;-57
2022/11/11 09:00:31;;;;;;;14.93;2.15;;;15.30;99.90;;;;;;5029499;28;20182;-58
2022/11/11 09:03:05;;;;;;;5.43;1.52;;;15.30;99.90;;;;;;5019323;28;20173;-57
2022/11/11 09:05:31;;;;;;;16.63;2.42;;;15.30;99.90;;;;;;5026268;28;20176;-57
2022/11/11 09:08:00;;;;;;;8.32;1.95;;;15.30;99.90;;;;;;5028764;28;20665;-57
2022/11/11 09:10:26;;;;;;;12.18;1.50;;;15.20;99.90;;;;;;5029918;28;20652;-57
2022/11/11 09:12:59;;;;;;;12.98;2.05;;;15.40;99.90;;;;;;5029816;28;20220;-55
2022/11/11 09:15:25;;;;;;;10.00;1.98;;;15.40;99.90;;;;;;5030418;28;20174;-57
2022/11/11 09:17:51;;;;;;;9.23;1.75;;;15.40;99.90;;;;;;5029958;28;20170;-56
2022/11/11 09:23:39;;;;;;;12.07;2.47;;;15.50;99.90;;;;;;5027940;28;20241;-57
2022/11/11 09:26:05;;;;;;;11.25;2.00;;;15.50;99.90;;;;;;5019034;28;20660;-56
2022/11/11 09:28:32;;;;;;;10.35;1.70;;;15.50;99.90;;;;;;5032279;28;20259;-56
2022/11/11 09:30:59;;;;;;;31.48;2.45;;;15.50;99.90;;;;;;5033107;28;20509;-56
2022/11/11 09:33:25;;;;;;;14.30;2.25;;;15.60;99.90;;;;;;5033597;28;20178;-56
2022/11/11 09:35:51;;;;;;;7.95;1.40;;;15.60;99.90;;;;;;5033301;28;20174;-56
2022/11/11 09:38:16;;;;;;;10.77;2.05;;;15.60;99.90;;;;;;5033287;28;20178;-58
2022/11/11 09:41:19;;;;;;;11.68;1.75;;;15.60;99.90;;;;;;5032808;28;20212;-57
2022/11/11 09:43:58;;;;;;;16.13;2.10;;;15.80;99.90;;;;;;5025020;28;20185;-58
2022/11/11 09:46:42;;;;;;;16.40;1.70;;;15.60;99.90;;;;;;5032996;28;20184;-58
2022/11/11 09:49:16;;;;;;;11.55;1.88;;;15.70;99.90;;;;;;5033102;28;20205;-58
2022/11/11 09:51:54;;;;;;;8.57;1.50;;;15.70;99.90;;;;;;5032294;28;20223;-58
2022/11/11 09:54:33;;;;;;;10.43;2.25;;;15.70;99.90;;;;;;5032677;28;20177;-57
2022/11/11 09:57:04;;;;;;;9.73;1.17;;;15.70;99.90;;;;;;5032950;28;20178;-58
2022/11/11 09:59:42;;;;;;;15.45;2.88;;;15.70;99.90;;;;;;5032804;28;20297;-57
2022/11/11 10:02:32;;;;;;;15.50;2.20;;;15.80;99.90;;;;;;5032676;28;20170;-57
2022/11/11 10:05:20;;;;;;;14.10;2.30;;;15.80;99.90;;;;;;5032895;28;20608;-57
2022/11/11 10:07:57;;;;;;;16.15;2.17;;;15.80;99.90;;;;;;5032908;28;20178;-58
2022/11/11 10:10:45;;;;;;;13.93;2.10;;;15.90;99.90;;;;;;5032638;28;20224;-57
2022/11/11 10:13:18;;;;;;;12.65;1.90;;;15.90;99.90;;;;;;5032773;28;20228;-57
2022/11/11 10:15:53;;;;;;;15.68;1.90;;;15.90;99.90;;;;;;5025567;28;20201;-57
2022/11/11 10:18:28;;;;;;;14.07;2.10;;;16.60;99.90;;;;;;5032128;28;20171;-58
2022/11/11 10:20:55;;;;;;;15.02;1.90;;;16.00;99.90;;;;;;5032522;28;20173;-58
2022/11/11 10:23:30;;;;;;;19.48;2.22;;;16.00;99.90;;;;;;5032272;28;20178;-57
2022/11/11 10:26:10;;;;;;;13.55;1.95;;;16.00;99.90;;;;;;5032430;28;20177;-58
2022/11/11 10:28:36;;;;;;;8.57;1.90;;;16.00;99.90;;;;;;5032437;28;20228;-58
2022/11/11 10:31:10;;;;;;;10.52;1.90;;;16.10;99.90;;;;;;5032768;28;20613;-57
2022/11/11 10:33:42;;;;;;;9.38;1.70;;;16.10;99.90;;;;;;5032496;28;20165;-57
2022/11/11 10:36:15;;;;;;;17.15;2.42;;;16.10;99.90;;;;;;5031544;28;20178;-58
2022/11/11 10:38:52;;;;;;;11.80;1.95;;;16.00;99.90;;;;;;5030214;28;20202;-58
2022/11/11 10:41:24;;;;;;;13.93;2.33;;;16.00;99.90;;;;;;5032169;28;20243;-57
2022/11/11 10:43:50;;;;;;;14.75;2.47;;;16.00;99.90;;;;;;5032111;28;20192;-57
2022/11/11 10:46:23;;;;;;;14.80;2.22;;;16.00;99.90;;;;;;5031786;28;20182;-57
2022/11/11 10:48:56;;;;;;;20.05;2.60;;;16.00;99.90;;;;;;5031587;28;20267;-57
2022/11/11 10:51:29;;;;;;;18.35;2.20;;;16.00;99.90;;;;;;5031702;28;20211;-57
2022/11/11 10:53:57;;;;;;;15.52;2.55;;;16.00;99.90;;;;;;5031080;28;20771;-57
2022/11/11 10:56:32;;;;;;;9.60;2.08;;;16.10;99.90;;;;;;5030611;28;20205;-57
2022/11/11 10:59:22;;;;;;;22.50;2.70;;;16.10;99.90;;;;;;5030761;28;20703;-57
2022/11/11 11:01:48;;;;;;;11.85;2.58;;;16.20;99.90;;;;;;5030744;28;20177;-57
2022/11/11 11:04:21;;;;;;;9.43;2.03;;;16.20;99.90;;;;;;5030821;28;20173;-57
2022/11/11 11:06:49;;;;;;;25.02;7.47;;;16.20;99.90;;;;;;5031251;28;20333;-57
2022/11/11 11:09:42;;;;;;;11.05;2.45;;;16.30;99.90;;;;;;5031575;28;20209;-57
2022/11/11 11:12:16;;;;;;;11.68;2.65;;;16.40;99.90;;;;;;5029856;28;20170;-57
2022/11/11 11:14:44;;;;;;;21.05;5.90;;;16.40;99.90;;;;;;5030218;28;20220;-57
2022/11/11 11:17:29;;;;;;;9.10;2.03;;;16.40;99.90;;;;;;5029542;28;20170;-57
2022/11/11 11:20:09;;;;;;;13.80;1.95;;;16.30;99.90;;;;;;5029846;28;20194;-57
2022/11/11 11:22:45;;;;;;;15.02;2.70;;;16.30;99.90;;;;;;5028163;28;20285;-57
2022/11/11 11:25:12;;;;;;;35.55;12.48;;;16.40;99.90;;;;;;5030464;28;20509;-58
2022/11/11 11:27:38;;;;;;;19.92;3.35;;;16.30;99.90;;;;;;5031123;28;20182;-57
2022/11/11 11:30:29;;;;;;;20.98;5.75;;;16.40;99.90;;;;;;5031432;28;20210;-57
2022/11/11 11:33:00;;;;;;;13.25;1.73;;;16.30;99.90;;;;;;5027048;28;20208;-58
2022/11/11 11:35:36;;;;;;;24.67;8.35;;;16.40;99.90;;;;;;5031330;28;20181;-58
2022/11/11 11:38:02;;;;;;;21.90;6.68;;;16.40;99.90;;;;;;5031541;28;20224;-56
2022/11/11 11:40:44;;;;;;;27.30;8.35;;;16.50;99.90;;;;;;5029807;28;20178;-57
2022/11/11 11:43:38;;;;;;;38.05;13.82;;;16.40;99.90;;;;;;5026340;28;20178;-57
2022/11/11 11:46:17;;;;;;;9.85;1.92;;;16.40;99.90;;;;;;5016246;28;20228;-57
2022/11/11 11:49:03;;;;;;;68.72;20.25;;;16.40;99.90;;;;;;5021695;28;20201;-57
2022/11/11 11:51:41;;;;;;;25.73;5.05;;;16.50;99.90;;;;;;5028946;28;20182;-57
2022/11/11 11:54:25;;;;;;;9.23;2.67;;;16.70;99.90;;;;;;5030329;28;20260;-57
2022/11/11 11:56:55;;;;;;;10.38;4.00;;;16.80;99.90;;;;;;5012663;28;20587;-57
2022/11/11 11:59:41;;;;;;;14.98;2.05;;;16.70;99.90;;;;;;5030524;28;20226;-57
2022/11/11 12:02:28;;;;;;;11.10;1.98;;;16.90;99.90;;;;;;5030748;28;20738;-57
2022/11/11 12:05:14;;;;;;;8.77;1.80;;;17.10;99.90;;;;;;5021548;28;20197;-57
2022/11/11 12:07:45;;;;;;;13.40;1.92;;;17.70;99.90;;;;;;4989516;28;20190;-57
2022/11/11 12:10:26;;;;;;;25.50;9.05;;;17.60;99.90;;;;;;5027574;28;20304;-57
2022/11/11 12:13:24;;;;;;;19.58;6.55;;;17.80;99.90;;;;;;5029439;28;20220;-57
2022/11/11 12:16:11;;;;;;;12.18;3.38;;;18.40;99.90;;;;;;5022196;28;20269;-57
2022/11/11 12:18:49;;;;;;;4.78;1.05;;;17.80;99.90;;;;;;5027560;28;20181;-57
2022/11/11 12:21:16;;;;;;;8.15;1.90;;;18.90;99.90;;;;;;5027830;28;20182;-57
2022/11/11 12:24:06;;;;;;;11.57;3.80;;;18.60;99.90;;;;;;5028670;28;20170;-57
2022/11/11 12:26:51;;;;;;;18.25;4.95;;;18.00;99.90;;;;;;5027726;28;20192;-57
2022/11/11 12:29:42;;;;;;;7.88;1.30;;;17.40;99.90;;;;;;5028129;28;20220;-57
2022/11/11 12:32:36;;;;;;;8.85;1.73;;;17.10;99.90;;;;;;5021306;28;20422;-57
2022/11/11 12:35:10;;;;;;;6.35;1.48;;;17.10;99.90;;;;;;5027801;28;20202;-57
2022/11/11 12:38:01;;;;;;;7.78;1.58;;;17.10;99.90;;;;;;5030643;28;20169;-57
2022/11/11 12:40:57;;;;;;;7.40;1.60;;;17.10;99.90;;;;;;5030658;28;20217;-57
2022/11/11 12:43:42;;;;;;;13.05;1.25;;;17.30;99.90;;;;;;5029975;28;20197;-57
2022/11/11 12:46:25;;;;;;;13.88;2.40;;;17.10;99.90;;;;;;5029585;28;20656;-57
2022/11/11 12:48:50;;;;;;;12.20;1.75;;;16.90;99.90;;;;;;5030195;28;20727;-57
2022/11/11 12:51:25;;;;;;;8.80;1.58;;;17.00;99.90;;;;;;5030263;28;20170;-57
2022/11/11 12:53:59;;;;;;;8.88;1.67;;;19.80;99.90;;;;;;5030549;28;20670;-58
2022/11/11 12:56:36;;;;;;;8.93;1.70;;;21.90;99.90;;;;;;5030714;28;20197;-58
2022/11/11 12:59:16;;;;;;;7.95;1.30;;;22.90;99.90;;;;;;5029109;28;20253;-57
2022/11/11 13:01:45;;;;;;;9.57;1.63;;;24.80;99.90;;;;;;5030521;28;20201;-57
2022/11/11 13:04:32;;;;;;;8.38;1.50;;;25.20;99.90;;;;;;5034072;28;20767;-56
2022/11/11 13:07:21;;;;;;;7.70;1.45;;;23.70;99.90;;;;;;5034028;28;20192;-56
2022/11/11 13:09:56;;;;;;;6.72;1.35;;;22.20;99.90;;;;;;5033810;28;20577;-56
2022/11/11 13:12:30;;;;;;;6.30;1.15;;;23.80;99.90;;;;;;5034221;28;20260;-56
2022/11/11 13:15:15;;;;;;;8.45;1.77;;;23.80;99.90;;;;;;5033865;28;20177;-56
2022/11/11 13:17:41;;;;;;;7.20;1.25;;;23.90;99.90;;;;;;5034128;28;20170;-56
2022/11/11 13:20:27;;;;;;;6.65;2.13;;;22.80;99.90;;;;;;5034019;28;20170;-56
2022/11/11 13:22:53;;;;;;;5.88;1.80;;;21.90;99.90;;;;;;5019714;28;20190;-57
2022/11/11 13:25:27;;;;;;;7.72;1.33;;;22.20;99.90;;;;;;5033601;28;20174;-56
2022/11/11 13:27:59;;;;;;;7.95;1.75;;;22.00;99.90;;;;;;5033868;28;20605;-56
2022/11/11 13:30:46;;;;;;;7.97;1.85;;;21.80;99.90;;;;;;5033034;28;20279;-56
2022/11/11 13:33:19;;;;;;;7.13;1.10;;;21.70;99.90;;;;;;5032732;28;20190;-56
2022/11/11 13:35:57;;;;;;;7.78;1.55;;;21.90;99.90;;;;;;5033587;28;20166;-56
2022/11/11 13:38:43;;;;;;;7.28;1.27;;;21.80;99.90;;;;;;5033523;28;20528;-57
2022/11/11 13:41:09;;;;;;;8.93;1.60;;;22.40;99.90;;;;;;5019149;28;20189;-57
2022/11/11 13:43:39;;;;;;;8.77;1.80;;;23.30;99.90;;;;;;5028145;28;20261;-57
2022/11/11 13:46:06;;;;;;;11.20;1.60;;;22.80;99.90;;;;;;5013556;28;20170;-57
2022/11/11 13:48:37;;;;;;;10.15;1.52;;;20.80;99.90;;;;;;5016281;28;20277;-55
2022/11/11 13:51:18;;;;;;;11.77;2.00;;;19.10;99.90;;;;;;5013813;28;20264;-56
2022/11/11 13:53:46;;;;;;;14.05;2.13;;;19.10;99.90;;;;;;5012835;28;20198;-57
2022/11/11 13:56:22;;;;;;;8.15;1.70;;;18.80;99.90;;;;;;5018654;28;20232;-57
2022/11/11 13:58:49;;;;;;;7.97;1.70;;;20.10;99.90;;;;;;5032441;28;20264;-57
2022/11/11 14:01:15;;;;;;;12.25;1.73;;;18.00;99.90;;;;;;5030759;28;20182;-57
2022/11/11 14:03:44;;;;;;;12.13;2.13;;;18.00;99.90;;;;;;5026789;28;20237;-57
2022/11/11 14:06:16;;;;;;;10.65;2.53;;;18.40;99.90;;;;;;5033102;28;20231;-57
2022/11/11 14:08:52;;;;;;;9.90;2.33;;;18.80;99.90;;;;;;5012919;28;20195;-57
2022/11/11 14:11:24;;;;;;;8.50;1.60;;;19.00;99.90;;;;;;5013396;28;20186;-55
2022/11/11 14:13:53;;;;;;;10.48;1.25;;;18.50;99.90;;;;;;5024354;28;20174;-56
2022/11/11 14:16:34;;;;;;;7.03;1.30;;;18.10;99.90;;;;;;5031645;28;20173;-56
2022/11/11 14:19:18;;;;;;;8.07;1.60;;;18.50;99.90;;;;;;5012498;28;20703;-56
2022/11/11 14:21:50;;;;;;;10.65;1.83;;;18.20;99.90;;;;;;5012786;28;20189;-56